sensor_id;sensor_type;location;lat;lon;timestamp;P1;durP1;ratioP1;P2;durP2;ratioP2
84687;SDS011;74908;42.040;21.322;2023-12-20T07:21:41;80.32;;;33.42;;
84687;SDS011;74908;42.040;21.322;2023-12-20T07:24:08;109.45;;;43.10;;
84687;SDS011;74908;42.040;21.322;2023-12-20T07:26:34;169.65;;;54.55;;
84687;SDS011;74908;42.040;21.322;2023-12-20T07:29:02;205.07;;;62.60;;
84687;SDS011;74908;42.040;21.322;2023-12-20T07:31:29;249.07;;;66.28;;
84687;SDS011;74908;42.040;21.322;2023-12-20T07:33:55;251.70;;;71.25;;
84687;SDS011;74908;42.040;21.322;2023-12-20T07:36:22;267.95;;;67.68;;
84687;SDS011;74908;42.040;21.322;2023-12-20T07:38:48;313.77;;;75.78;;
84687;SDS011;74908;42.040;21.322;2023-12-20T07:41:14;310.75;;;79.97;;
84687;SDS011;74908;42.040;21.322;2023-12-20T07:43:46;422.63;;;89.00;;
84687;SDS011;74908;42.040;21.322;2023-12-20T07:46:12;289.63;;;68.55;;
84687;SDS011;74908;42.040;21.322;2023-12-20T07:48:38;396.42;;;81.55;;
84687;SDS011;74908;42.040;21.322;2023-12-20T07:51:04;388.70;;;86.53;;
84687;SDS011;74908;42.040;21.322;2023-12-20T07:53:34;430.85;;;93.93;;
84687;SDS011;74908;42.040;21.322;2023-12-20T07:56:01;355.40;;;79.45;;
84687;SDS011;74908;42.040;21.322;2023-12-20T07:58:27;376.63;;;84.25;;
84687;SDS011;74908;42.040;21.322;2023-12-20T08:00:55;305.90;;;77.68;;
84687;SDS011;74908;42.040;21.322;2023-12-20T08:03:21;232.02;;;65.22;;
84687;SDS011;74908;42.040;21.322;2023-12-20T08:05:47;240.65;;;67.32;;
84687;SDS011;74908;42.040;21.322;2023-12-20T08:08:13;219.32;;;66.47;;
84687;SDS011;74908;42.040;21.322;2023-12-20T08:10:39;230.70;;;71.80;;
84687;SDS011;74908;42.040;21.322;2023-12-20T08:13:05;300.38;;;83.47;;
84687;SDS011;74908;42.040;21.322;2023-12-20T08:15:32;263.17;;;80.85;;
84687;SDS011;74908;42.040;21.322;2023-12-20T08:17:58;286.00;;;75.10;;
84687;SDS011;74908;42.040;21.322;2023-12-20T08:20:24;281.75;;;74.97;;
84687;SDS011;74908;42.040;21.322;2023-12-20T08:22:50;299.00;;;80.65;;
84687;SDS011;74908;42.040;21.322;2023-12-20T08:25:16;264.65;;;75.38;;
84687;SDS011;74908;42.040;21.322;2023-12-20T08:27:42;249.07;;;73.13;;
84687;SDS011;74908;42.040;21.322;2023-12-20T08:30:08;257.13;;;71.75;;
84687;SDS011;74908;42.040;21.322;2023-12-20T08:32:35;282.67;;;75.78;;
84687;SDS011;74908;42.040;21.322;2023-12-20T08:35:01;196.48;;;69.20;;
84687;SDS011;74908;42.040;21.322;2023-12-20T08:37:27;168.38;;;51.60;;
84687;SDS011;74908;42.040;21.322;2023-12-20T08:39:54;149.70;;;48.70;;
84687;SDS011;74908;42.040;21.322;2023-12-20T08:42:20;207.70;;;59.40;;
84687;SDS011;74908;42.040;21.322;2023-12-20T08:44:46;265.20;;;65.22;;
84687;SDS011;74908;42.040;21.322;2023-12-20T08:47:12;171.07;;;56.63;;
84687;SDS011;74908;42.040;21.322;2023-12-20T08:49:40;159.70;;;62.53;;
84687;SDS011;74908;42.040;21.322;2023-12-20T08:52:07;180.02;;;67.18;;
84687;SDS011;74908;42.040;21.322;2023-12-20T08:54:33;170.52;;;62.67;;
84687;SDS011;74908;42.040;21.322;2023-12-20T08:56:59;171.35;;;66.13;;
84687;SDS011;74908;42.040;21.322;2023-12-20T08:59:25;155.65;;;61.63;;
84687;SDS011;74908;42.040;21.322;2023-12-20T09:01:51;152.13;;;62.28;;
84687;SDS011;74908;42.040;21.322;2023-12-20T09:04:20;123.15;;;54.95;;
84687;SDS011;74908;42.040;21.322;2023-12-20T09:06:46;126.75;;;48.88;;
84687;SDS011;74908;42.040;21.322;2023-12-20T09:09:12;182.43;;;60.90;;
84687;SDS011;74908;42.040;21.322;2023-12-20T09:11:41;156.57;;;56.33;;
84687;SDS011;74908;42.040;21.322;2023-12-20T09:14:07;111.65;;;50.10;;
84687;SDS011;74908;42.040;21.322;2023-12-20T09:16:34;82.32;;;38.03;;
84687;SDS011;74908;42.040;21.322;2023-12-20T09:19:00;91.50;;;43.85;;
84687;SDS011;74908;42.040;21.322;2023-12-20T09:21:26;102.82;;;50.30;;
84687;SDS011;74908;42.040;21.322;2023-12-20T09:23:52;100.32;;;47.80;;
84687;SDS011;74908;42.040;21.322;2023-12-20T09:26:18;115.72;;;50.15;;
84687;SDS011;74908;42.040;21.322;2023-12-20T09:28:46;104.82;;;48.58;;
84687;SDS011;74908;42.040;21.322;2023-12-20T09:31:13;121.40;;;52.10;;
84687;SDS011;74908;42.040;21.322;2023-12-20T09:33:39;101.38;;;47.20;;
84687;SDS011;74908;42.040;21.322;2023-12-20T09:36:05;144.48;;;58.33;;
84687;SDS011;74908;42.040;21.322;2023-12-20T11:37:57;76.43;;;36.70;;
84687;SDS011;74908;42.040;21.322;2023-12-20T11:40:24;77.30;;;40.83;;
84687;SDS011;74908;42.040;21.322;2023-12-20T11:42:50;86.20;;;43.45;;
84687;SDS011;74908;42.040;21.322;2023-12-20T11:45:19;82.15;;;41.45;;
84687;SDS011;74908;42.040;21.322;2023-12-20T11:47:50;78.70;;;37.63;;
84687;SDS011;74908;42.040;21.322;2023-12-20T11:50:17;78.70;;;39.97;;
84687;SDS011;74908;42.040;21.322;2023-12-20T11:52:43;75.97;;;39.30;;
84687;SDS011;74908;42.040;21.322;2023-12-20T11:55:09;74.47;;;40.25;;
84687;SDS011;74908;42.040;21.322;2023-12-20T11:57:36;83.90;;;41.15;;
84687;SDS011;74908;42.040;21.322;2023-12-20T12:00:03;84.85;;;42.35;;
84687;SDS011;74908;42.040;21.322;2023-12-20T12:02:29;81.28;;;38.33;;
84687;SDS011;74908;42.040;21.322;2023-12-20T12:04:56;81.60;;;35.92;;
84687;SDS011;74908;42.040;21.322;2023-12-20T12:07:23;78.60;;;39.00;;
84687;SDS011;74908;42.040;21.322;2023-12-20T12:09:50;62.00;;;31.80;;
84687;SDS011;74908;42.040;21.322;2023-12-20T12:12:16;78.85;;;35.45;;
84687;SDS011;74908;42.040;21.322;2023-12-20T12:14:44;74.50;;;36.55;;
84687;SDS011;74908;42.040;21.322;2023-12-20T12:17:10;71.57;;;35.58;;
84687;SDS011;74908;42.040;21.322;2023-12-20T12:19:38;60.60;;;30.98;;
84687;SDS011;74908;42.040;21.322;2023-12-20T12:22:05;64.15;;;33.28;;
84687;SDS011;74908;42.040;21.322;2023-12-20T12:24:33;65.32;;;33.28;;
84687;SDS011;74908;42.040;21.322;2023-12-20T12:27:00;62.50;;;30.88;;
84687;SDS011;74908;42.040;21.322;2023-12-20T12:29:26;70.78;;;34.90;;
84687;SDS011;74908;42.040;21.322;2023-12-20T12:31:53;68.63;;;32.65;;
84687;SDS011;74908;42.040;21.322;2023-12-20T12:34:19;65.40;;;33.88;;
84687;SDS011;74908;42.040;21.322;2023-12-20T12:36:45;71.57;;;32.35;;
84687;SDS011;74908;42.040;21.322;2023-12-20T12:39:15;73.10;;;36.65;;
84687;SDS011;74908;42.040;21.322;2023-12-20T12:41:41;63.53;;;31.75;;
84687;SDS011;74908;42.040;21.322;2023-12-20T12:44:07;68.82;;;33.70;;
84687;SDS011;74908;42.040;21.322;2023-12-20T12:46:33;71.28;;;35.55;;
84687;SDS011;74908;42.040;21.322;2023-12-20T12:48:59;74.40;;;35.38;;
84687;SDS011;74908;42.040;21.322;2023-12-20T12:51:26;71.40;;;34.92;;
84687;SDS011;74908;42.040;21.322;2023-12-20T12:53:53;85.50;;;39.80;;
84687;SDS011;74908;42.040;21.322;2023-12-20T12:56:19;81.95;;;42.08;;
84687;SDS011;74908;42.040;21.322;2023-12-20T12:58:47;85.45;;;41.78;;
84687;SDS011;74908;42.040;21.322;2023-12-20T13:01:13;82.93;;;40.90;;
84687;SDS011;74908;42.040;21.322;2023-12-20T13:03:39;84.57;;;39.58;;
84687;SDS011;74908;42.040;21.322;2023-12-20T13:06:06;80.95;;;40.03;;
84687;SDS011;74908;42.040;21.322;2023-12-20T13:08:34;83.30;;;39.35;;
84687;SDS011;74908;42.040;21.322;2023-12-20T13:11:00;77.38;;;36.83;;
84687;SDS011;74908;42.040;21.322;2023-12-20T13:13:29;80.40;;;37.78;;
84687;SDS011;74908;42.040;21.322;2023-12-20T13:15:55;78.00;;;37.90;;
84687;SDS011;74908;42.040;21.322;2023-12-20T13:18:22;74.65;;;36.72;;
84687;SDS011;74908;42.040;21.322;2023-12-20T13:20:48;82.47;;;39.35;;
84687;SDS011;74908;42.040;21.322;2023-12-20T13:23:15;80.38;;;39.25;;
84687;SDS011;74908;42.040;21.322;2023-12-20T13:25:43;73.60;;;37.72;;
84687;SDS011;74908;42.040;21.322;2023-12-20T13:28:13;76.35;;;34.75;;
84687;SDS011;74908;42.040;21.322;2023-12-20T13:30:39;74.55;;;37.00;;
84687;SDS011;74908;42.040;21.322;2023-12-20T13:33:05;70.97;;;36.45;;
84687;SDS011;74908;42.040;21.322;2023-12-20T13:35:32;69.72;;;35.70;;
84687;SDS011;74908;42.040;21.322;2023-12-20T13:37:58;79.10;;;40.00;;
84687;SDS011;74908;42.040;21.322;2023-12-20T13:40:25;73.25;;;36.85;;
84687;SDS011;74908;42.040;21.322;2023-12-20T13:42:51;70.13;;;36.58;;
84687;SDS011;74908;42.040;21.322;2023-12-20T13:45:17;72.55;;;35.15;;
84687;SDS011;74908;42.040;21.322;2023-12-20T13:47:43;80.63;;;42.28;;
84687;SDS011;74908;42.040;21.322;2023-12-20T13:50:09;87.90;;;38.97;;
84687;SDS011;74908;42.040;21.322;2023-12-20T13:52:35;67.70;;;35.05;;
84687;SDS011;74908;42.040;21.322;2023-12-20T13:55:02;77.70;;;35.33;;
84687;SDS011;74908;42.040;21.322;2023-12-20T13:57:30;72.10;;;34.20;;
84687;SDS011;74908;42.040;21.322;2023-12-20T13:59:56;79.03;;;40.47;;
84687;SDS011;74908;42.040;21.322;2023-12-20T14:02:23;72.88;;;36.13;;
84687;SDS011;74908;42.040;21.322;2023-12-20T14:04:49;71.18;;;37.30;;
84687;SDS011;74908;42.040;21.322;2023-12-20T14:07:15;71.85;;;33.97;;
84687;SDS011;74908;42.040;21.322;2023-12-20T14:09:41;67.07;;;33.28;;
84687;SDS011;74908;42.040;21.322;2023-12-20T14:12:11;65.85;;;32.85;;
84687;SDS011;74908;42.040;21.322;2023-12-20T14:14:37;61.38;;;30.67;;
84687;SDS011;74908;42.040;21.322;2023-12-20T14:17:03;58.63;;;28.20;;
84687;SDS011;74908;42.040;21.322;2023-12-20T14:19:31;59.40;;;26.67;;
84687;SDS011;74908;42.040;21.322;2023-12-20T14:21:58;50.58;;;25.58;;
84687;SDS011;74908;42.040;21.322;2023-12-20T14:24:28;56.58;;;28.98;;
84687;SDS011;74908;42.040;21.322;2023-12-20T14:26:54;49.90;;;26.23;;
84687;SDS011;74908;42.040;21.322;2023-12-20T14:29:21;53.63;;;26.95;;
84687;SDS011;74908;42.040;21.322;2023-12-20T14:31:47;50.90;;;26.85;;
84687;SDS011;74908;42.040;21.322;2023-12-20T14:34:14;55.22;;;28.33;;
84687;SDS011;74908;42.040;21.322;2023-12-20T14:36:40;65.32;;;32.47;;
84687;SDS011;74908;42.040;21.322;2023-12-20T14:39:07;70.80;;;37.05;;
84687;SDS011;74908;42.040;21.322;2023-12-20T14:41:33;77.45;;;35.30;;
84687;SDS011;74908;42.040;21.322;2023-12-20T14:44:00;78.60;;;36.28;;
84687;SDS011;74908;42.040;21.322;2023-12-20T14:46:26;69.45;;;36.13;;
84687;SDS011;74908;42.040;21.322;2023-12-20T14:48:53;71.63;;;34.53;;
84687;SDS011;74908;42.040;21.322;2023-12-20T14:51:19;71.38;;;35.63;;
84687;SDS011;74908;42.040;21.322;2023-12-20T14:53:45;76.95;;;35.33;;
84687;SDS011;74908;42.040;21.322;2023-12-20T14:56:12;73.18;;;35.40;;
84687;SDS011;74908;42.040;21.322;2023-12-20T14:58:38;70.82;;;31.90;;
84687;SDS011;74908;42.040;21.322;2023-12-20T15:01:04;64.53;;;31.20;;
84687;SDS011;74908;42.040;21.322;2023-12-20T15:03:34;73.15;;;33.40;;
84687;SDS011;74908;42.040;21.322;2023-12-20T15:06:00;67.90;;;34.65;;
84687;SDS011;74908;42.040;21.322;2023-12-20T15:08:26;67.63;;;34.90;;
84687;SDS011;74908;42.040;21.322;2023-12-20T15:10:52;72.93;;;32.53;;
84687;SDS011;74908;42.040;21.322;2023-12-20T15:13:18;67.68;;;33.33;;
84687;SDS011;74908;42.040;21.322;2023-12-20T15:15:45;63.15;;;30.73;;
84687;SDS011;74908;42.040;21.322;2023-12-20T15:18:12;58.97;;;27.85;;
84687;SDS011;74908;42.040;21.322;2023-12-20T15:20:38;59.33;;;27.40;;
84687;SDS011;74908;42.040;21.322;2023-12-20T15:23:04;43.67;;;23.35;;
84687;SDS011;74908;42.040;21.322;2023-12-20T15:25:33;39.33;;;21.42;;
84687;SDS011;74908;42.040;21.322;2023-12-20T15:27:59;26.80;;;15.40;;
84687;SDS011;74908;42.040;21.322;2023-12-20T15:30:28;28.60;;;14.25;;
84687;SDS011;74908;42.040;21.322;2023-12-20T15:32:55;20.52;;;10.23;;
84687;SDS011;74908;42.040;21.322;2023-12-20T15:35:22;18.63;;;9.93;;
84687;SDS011;74908;42.040;21.322;2023-12-20T15:37:48;16.58;;;8.07;;
84687;SDS011;74908;42.040;21.322;2023-12-20T15:40:14;15.65;;;7.90;;
84687;SDS011;74908;42.040;21.322;2023-12-20T15:42:40;11.95;;;6.75;;
84687;SDS011;74908;42.040;21.322;2023-12-20T15:45:07;22.38;;;11.40;;
84687;SDS011;74908;42.040;21.322;2023-12-20T15:47:34;37.88;;;18.20;;
84687;SDS011;74908;42.040;21.322;2023-12-20T15:50:02;52.42;;;25.25;;
84687;SDS011;74908;42.040;21.322;2023-12-20T15:52:29;66.22;;;27.40;;
84687;SDS011;74908;42.040;21.322;2023-12-20T15:54:55;56.55;;;27.85;;
84687;SDS011;74908;42.040;21.322;2023-12-20T15:57:22;22.00;;;11.18;;
84687;SDS011;74908;42.040;21.322;2023-12-20T15:59:48;21.95;;;10.63;;
84687;SDS011;74908;42.040;21.322;2023-12-20T16:02:15;26.80;;;15.18;;
84687;SDS011;74908;42.040;21.322;2023-12-20T16:04:42;23.52;;;11.32;;
84687;SDS011;74908;42.040;21.322;2023-12-20T16:07:08;31.92;;;15.10;;
84687;SDS011;74908;42.040;21.322;2023-12-20T16:09:35;43.28;;;18.67;;
84687;SDS011;74908;42.040;21.322;2023-12-20T16:12:01;52.40;;;24.77;;
84687;SDS011;74908;42.040;21.322;2023-12-20T16:14:27;39.78;;;18.95;;
84687;SDS011;74908;42.040;21.322;2023-12-20T16:16:54;30.33;;;14.85;;
84687;SDS011;74908;42.040;21.322;2023-12-20T16:19:21;33.45;;;16.17;;
84687;SDS011;74908;42.040;21.322;2023-12-20T16:21:47;42.25;;;19.95;;
84687;SDS011;74908;42.040;21.322;2023-12-20T16:24:13;34.65;;;16.40;;
84687;SDS011;74908;42.040;21.322;2023-12-20T16:26:39;28.55;;;13.85;;
84687;SDS011;74908;42.040;21.322;2023-12-20T16:29:05;22.38;;;13.07;;
84687;SDS011;74908;42.040;21.322;2023-12-20T16:31:31;22.42;;;11.50;;
84687;SDS011;74908;42.040;21.322;2023-12-20T16:33:58;18.13;;;11.02;;
84687;SDS011;74908;42.040;21.322;2023-12-20T16:36:24;21.00;;;10.55;;
84687;SDS011;74908;42.040;21.322;2023-12-20T16:38:50;19.40;;;10.38;;
84687;SDS011;74908;42.040;21.322;2023-12-20T16:41:16;21.25;;;10.82;;
84687;SDS011;74908;42.040;21.322;2023-12-20T16:43:42;22.95;;;11.15;;
84687;SDS011;74908;42.040;21.322;2023-12-20T16:46:10;23.42;;;11.85;;
84687;SDS011;74908;42.040;21.322;2023-12-20T16:48:36;18.75;;;9.55;;
84687;SDS011;74908;42.040;21.322;2023-12-20T16:51:02;23.75;;;11.48;;
84687;SDS011;74908;42.040;21.322;2023-12-20T16:53:28;22.10;;;10.05;;
84687;SDS011;74908;42.040;21.322;2023-12-20T16:55:54;23.65;;;10.18;;
84687;SDS011;74908;42.040;21.322;2023-12-20T16:58:20;25.92;;;12.68;;
84687;SDS011;74908;42.040;21.322;2023-12-20T17:00:47;23.90;;;12.02;;
84687;SDS011;74908;42.040;21.322;2023-12-20T17:03:13;19.65;;;10.32;;
84687;SDS011;74908;42.040;21.322;2023-12-20T17:05:39;21.65;;;11.07;;
84687;SDS011;74908;42.040;21.322;2023-12-20T17:08:05;25.45;;;10.30;;
84687;SDS011;74908;42.040;21.322;2023-12-20T17:10:32;22.88;;;11.98;;
84687;SDS011;74908;42.040;21.322;2023-12-20T17:12:58;21.08;;;11.80;;
84687;SDS011;74908;42.040;21.322;2023-12-20T17:15:24;25.67;;;12.23;;
84687;SDS011;74908;42.040;21.322;2023-12-20T17:17:50;27.42;;;13.15;;
84687;SDS011;74908;42.040;21.322;2023-12-20T17:20:17;25.50;;;12.85;;
84687;SDS011;74908;42.040;21.322;2023-12-20T17:22:43;29.48;;;14.35;;
84687;SDS011;74908;42.040;21.322;2023-12-20T17:25:09;23.63;;;11.35;;
84687;SDS011;74908;42.040;21.322;2023-12-20T17:27:36;21.13;;;12.00;;
84687;SDS011;74908;42.040;21.322;2023-12-20T17:30:03;22.83;;;11.93;;
84687;SDS011;74908;42.040;21.322;2023-12-20T17:32:29;21.80;;;10.95;;
84687;SDS011;74908;42.040;21.322;2023-12-20T17:34:55;23.25;;;10.88;;
84687;SDS011;74908;42.040;21.322;2023-12-20T17:37:21;23.35;;;12.27;;
84687;SDS011;74908;42.040;21.322;2023-12-20T17:39:47;19.33;;;11.57;;
84687;SDS011;74908;42.040;21.322;2023-12-20T17:42:13;16.40;;;10.93;;
84687;SDS011;74908;42.040;21.322;2023-12-20T17:44:40;25.50;;;11.00;;
84687;SDS011;74908;42.040;21.322;2023-12-20T17:47:06;34.38;;;12.77;;
84687;SDS011;74908;42.040;21.322;2023-12-20T17:49:32;23.58;;;12.52;;
84687;SDS011;74908;42.040;21.322;2023-12-20T17:51:58;22.92;;;10.75;;
84687;SDS011;74908;42.040;21.322;2023-12-20T17:54:24;23.17;;;11.65;;
84687;SDS011;74908;42.040;21.322;2023-12-20T17:56:52;27.20;;;12.57;;
84687;SDS011;74908;42.040;21.322;2023-12-20T17:59:18;21.98;;;11.48;;
84687;SDS011;74908;42.040;21.322;2023-12-20T18:01:44;24.75;;;10.95;;
84687;SDS011;74908;42.040;21.322;2023-12-20T18:04:10;22.35;;;10.75;;
84687;SDS011;74908;42.040;21.322;2023-12-20T18:06:37;24.40;;;11.40;;
84687;SDS011;74908;42.040;21.322;2023-12-20T18:09:03;26.52;;;12.88;;
84687;SDS011;74908;42.040;21.322;2023-12-20T18:11:29;27.55;;;13.75;;
84687;SDS011;74908;42.040;21.322;2023-12-20T18:13:55;31.30;;;14.88;;
84687;SDS011;74908;42.040;21.322;2023-12-20T18:16:22;38.80;;;17.42;;
84687;SDS011;74908;42.040;21.322;2023-12-20T18:18:48;40.13;;;17.00;;
84687;SDS011;74908;42.040;21.322;2023-12-20T18:21:14;34.22;;;16.73;;
84687;SDS011;74908;42.040;21.322;2023-12-20T18:23:40;32.10;;;15.80;;
84687;SDS011;74908;42.040;21.322;2023-12-20T18:26:06;27.13;;;14.05;;
84687;SDS011;74908;42.040;21.322;2023-12-20T18:28:32;32.38;;;15.18;;
84687;SDS011;74908;42.040;21.322;2023-12-20T18:30:59;28.00;;;14.52;;
84687;SDS011;74908;42.040;21.322;2023-12-20T18:33:25;31.38;;;15.57;;
84687;SDS011;74908;42.040;21.322;2023-12-20T18:35:51;40.60;;;18.75;;
84687;SDS011;74908;42.040;21.322;2023-12-20T18:38:17;37.70;;;18.77;;
84687;SDS011;74908;42.040;21.322;2023-12-20T18:40:43;41.83;;;20.75;;
84687;SDS011;74908;42.040;21.322;2023-12-20T18:43:13;40.38;;;20.38;;
84687;SDS011;74908;42.040;21.322;2023-12-20T18:45:39;44.10;;;20.88;;
84687;SDS011;74908;42.040;21.322;2023-12-20T18:48:06;43.65;;;19.23;;
84687;SDS011;74908;42.040;21.322;2023-12-20T18:50:32;34.05;;;16.90;;
84687;SDS011;74908;42.040;21.322;2023-12-20T18:52:58;38.60;;;18.75;;
84687;SDS011;74908;42.040;21.322;2023-12-20T18:55:24;41.00;;;19.75;;
84687;SDS011;74908;42.040;21.322;2023-12-20T18:57:50;45.08;;;21.60;;
84687;SDS011;74908;42.040;21.322;2023-12-20T19:00:16;44.58;;;21.80;;
84687;SDS011;74908;42.040;21.322;2023-12-20T19:02:43;39.35;;;19.77;;
84687;SDS011;74908;42.040;21.322;2023-12-20T19:05:09;39.22;;;18.80;;
84687;SDS011;74908;42.040;21.322;2023-12-20T19:07:35;34.70;;;18.20;;
84687;SDS011;74908;42.040;21.322;2023-12-20T19:10:02;42.30;;;18.00;;
84687;SDS011;74908;42.040;21.322;2023-12-20T19:12:28;38.55;;;18.35;;
84687;SDS011;74908;42.040;21.322;2023-12-20T19:14:54;44.17;;;19.50;;
84687;SDS011;74908;42.040;21.322;2023-12-20T19:17:21;42.92;;;19.63;;
84687;SDS011;74908;42.040;21.322;2023-12-20T19:19:47;38.45;;;18.75;;
84687;SDS011;74908;42.040;21.322;2023-12-20T19:22:13;39.83;;;19.23;;
84687;SDS011;74908;42.040;21.322;2023-12-20T19:24:40;30.63;;;14.25;;
84687;SDS011;74908;42.040;21.322;2023-12-20T19:27:09;24.05;;;11.88;;
84687;SDS011;74908;42.040;21.322;2023-12-20T19:29:35;27.00;;;13.80;;
84687;SDS011;74908;42.040;21.322;2023-12-20T19:32:01;38.67;;;19.05;;
84687;SDS011;74908;42.040;21.322;2023-12-20T19:34:27;42.78;;;18.33;;
84687;SDS011;74908;42.040;21.322;2023-12-20T19:36:53;35.75;;;15.18;;
84687;SDS011;74908;42.040;21.322;2023-12-20T19:39:20;34.97;;;17.30;;
84687;SDS011;74908;42.040;21.322;2023-12-20T19:41:46;40.08;;;18.58;;
84687;SDS011;74908;42.040;21.322;2023-12-20T19:44:12;44.75;;;21.92;;
84687;SDS011;74908;42.040;21.322;2023-12-20T19:46:41;42.30;;;21.65;;
84687;SDS011;74908;42.040;21.322;2023-12-20T19:49:08;44.03;;;20.83;;
84687;SDS011;74908;42.040;21.322;2023-12-20T19:51:34;44.03;;;21.95;;
84687;SDS011;74908;42.040;21.322;2023-12-20T19:54:01;34.70;;;16.63;;
84687;SDS011;74908;42.040;21.322;2023-12-20T19:56:27;52.00;;;22.13;;
84687;SDS011;74908;42.040;21.322;2023-12-20T19:58:53;36.60;;;18.90;;
84687;SDS011;74908;42.040;21.322;2023-12-20T20:01:21;40.13;;;18.10;;
84687;SDS011;74908;42.040;21.322;2023-12-20T20:03:47;29.60;;;14.27;;
84687;SDS011;74908;42.040;21.322;2023-12-20T20:06:13;33.83;;;15.48;;
84687;SDS011;74908;42.040;21.322;2023-12-20T20:08:39;30.90;;;15.18;;
84687;SDS011;74908;42.040;21.322;2023-12-20T20:11:05;40.33;;;17.65;;
84687;SDS011;74908;42.040;21.322;2023-12-20T20:13:34;38.72;;;17.52;;
84687;SDS011;74908;42.040;21.322;2023-12-20T20:16:00;37.33;;;16.45;;
84687;SDS011;74908;42.040;21.322;2023-12-20T20:18:26;41.33;;;17.73;;
84687;SDS011;74908;42.040;21.322;2023-12-20T20:20:53;36.20;;;16.77;;
84687;SDS011;74908;42.040;21.322;2023-12-20T20:23:19;33.47;;;16.52;;
84687;SDS011;74908;42.040;21.322;2023-12-20T20:25:45;33.75;;;16.52;;
84687;SDS011;74908;42.040;21.322;2023-12-20T20:28:11;35.72;;;16.15;;
84687;SDS011;74908;42.040;21.322;2023-12-20T20:30:38;41.45;;;18.63;;
84687;SDS011;74908;42.040;21.322;2023-12-20T20:33:04;37.60;;;16.60;;
84687;SDS011;74908;42.040;21.322;2023-12-20T20:35:30;38.90;;;19.40;;
84687;SDS011;74908;42.040;21.322;2023-12-20T20:37:56;38.03;;;18.40;;
84687;SDS011;74908;42.040;21.322;2023-12-20T20:40:22;34.47;;;17.40;;
84687;SDS011;74908;42.040;21.322;2023-12-20T20:42:48;32.25;;;16.70;;
84687;SDS011;74908;42.040;21.322;2023-12-20T20:45:14;28.77;;;14.27;;
84687;SDS011;74908;42.040;21.322;2023-12-20T20:47:42;37.00;;;16.75;;
84687;SDS011;74908;42.040;21.322;2023-12-20T20:50:08;48.38;;;19.05;;
84687;SDS011;74908;42.040;21.322;2023-12-20T20:52:35;42.85;;;20.05;;
84687;SDS011;74908;42.040;21.322;2023-12-20T20:55:01;33.00;;;16.85;;
84687;SDS011;74908;42.040;21.322;2023-12-20T20:57:27;34.78;;;14.00;;
84687;SDS011;74908;42.040;21.322;2023-12-20T20:59:54;53.85;;;23.80;;
84687;SDS011;74908;42.040;21.322;2023-12-20T21:02:20;54.05;;;26.05;;
84687;SDS011;74908;42.040;21.322;2023-12-20T21:04:46;37.13;;;19.02;;
84687;SDS011;74908;42.040;21.322;2023-12-20T21:07:16;41.72;;;18.92;;
84687;SDS011;74908;42.040;21.322;2023-12-20T21:09:42;29.52;;;15.52;;
84687;SDS011;74908;42.040;21.322;2023-12-20T21:12:08;40.45;;;17.90;;
84687;SDS011;74908;42.040;21.322;2023-12-20T21:14:34;31.65;;;17.25;;
84687;SDS011;74908;42.040;21.322;2023-12-20T21:17:00;30.55;;;16.02;;
84687;SDS011;74908;42.040;21.322;2023-12-20T21:19:26;32.08;;;15.90;;
84687;SDS011;74908;42.040;21.322;2023-12-20T21:21:53;37.45;;;15.93;;
84687;SDS011;74908;42.040;21.322;2023-12-20T21:24:19;25.50;;;14.48;;
84687;SDS011;74908;42.040;21.322;2023-12-20T21:26:45;25.58;;;13.52;;
84687;SDS011;74908;42.040;21.322;2023-12-20T21:29:12;29.27;;;14.40;;
84687;SDS011;74908;42.040;21.322;2023-12-20T21:31:38;26.55;;;13.23;;
84687;SDS011;74908;42.040;21.322;2023-12-20T21:34:04;29.23;;;13.63;;
84687;SDS011;74908;42.040;21.322;2023-12-20T21:36:30;28.15;;;14.57;;
84687;SDS011;74908;42.040;21.322;2023-12-20T21:38:56;28.63;;;14.23;;
84687;SDS011;74908;42.040;21.322;2023-12-20T21:41:22;27.40;;;11.35;;
84687;SDS011;74908;42.040;21.322;2023-12-20T21:43:49;25.83;;;14.23;;
84687;SDS011;74908;42.040;21.322;2023-12-20T21:46:16;24.50;;;13.10;;
84687;SDS011;74908;42.040;21.322;2023-12-20T21:48:42;27.85;;;13.63;;
84687;SDS011;74908;42.040;21.322;2023-12-20T21:51:08;24.77;;;13.25;;
84687;SDS011;74908;42.040;21.322;2023-12-20T21:53:35;28.98;;;12.77;;
84687;SDS011;74908;42.040;21.322;2023-12-20T21:56:01;39.67;;;18.48;;
84687;SDS011;74908;42.040;21.322;2023-12-20T21:58:27;25.17;;;12.23;;
84687;SDS011;74908;42.040;21.322;2023-12-20T22:00:53;25.25;;;13.35;;
84687;SDS011;74908;42.040;21.322;2023-12-20T22:03:19;31.73;;;13.32;;
84687;SDS011;74908;42.040;21.322;2023-12-20T22:05:45;24.67;;;13.60;;
84687;SDS011;74908;42.040;21.322;2023-12-20T22:08:11;22.23;;;11.65;;
84687;SDS011;74908;42.040;21.322;2023-12-20T22:10:37;33.25;;;16.38;;
84687;SDS011;74908;42.040;21.322;2023-12-20T22:13:04;30.40;;;15.23;;
84687;SDS011;74908;42.040;21.322;2023-12-20T22:15:30;34.75;;;15.88;;
84687;SDS011;74908;42.040;21.322;2023-12-20T22:17:56;35.80;;;14.80;;
84687;SDS011;74908;42.040;21.322;2023-12-20T22:20:22;29.92;;;15.43;;
84687;SDS011;74908;42.040;21.322;2023-12-20T22:22:48;25.25;;;13.00;;
84687;SDS011;74908;42.040;21.322;2023-12-20T22:25:15;24.75;;;11.98;;
84687;SDS011;74908;42.040;21.322;2023-12-20T22:27:43;27.48;;;14.50;;
84687;SDS011;74908;42.040;21.322;2023-12-20T22:30:11;27.23;;;13.18;;
84687;SDS011;74908;42.040;21.322;2023-12-20T22:32:37;34.03;;;14.82;;
84687;SDS011;74908;42.040;21.322;2023-12-20T22:35:04;36.80;;;18.73;;
84687;SDS011;74908;42.040;21.322;2023-12-20T22:37:31;21.98;;;13.57;;
84687;SDS011;74908;42.040;21.322;2023-12-20T22:39:58;29.40;;;14.60;;
84687;SDS011;74908;42.040;21.322;2023-12-20T22:42:24;34.63;;;17.55;;
84687;SDS011;74908;42.040;21.322;2023-12-20T22:44:50;31.63;;;15.30;;
84687;SDS011;74908;42.040;21.322;2023-12-20T22:47:20;34.35;;;17.23;;
84687;SDS011;74908;42.040;21.322;2023-12-20T22:49:47;29.50;;;15.27;;
84687;SDS011;74908;42.040;21.322;2023-12-20T22:52:13;30.98;;;15.10;;
84687;SDS011;74908;42.040;21.322;2023-12-20T22:54:39;31.33;;;15.48;;
84687;SDS011;74908;42.040;21.322;2023-12-20T22:57:05;40.38;;;17.50;;
84687;SDS011;74908;42.040;21.322;2023-12-20T22:59:32;27.38;;;13.43;;
84687;SDS011;74908;42.040;21.322;2023-12-20T23:01:58;38.90;;;17.88;;
84687;SDS011;74908;42.040;21.322;2023-12-20T23:04:24;40.65;;;20.70;;
84687;SDS011;74908;42.040;21.322;2023-12-20T23:06:51;42.20;;;17.80;;
84687;SDS011;74908;42.040;21.322;2023-12-20T23:09:17;35.25;;;16.38;;
84687;SDS011;74908;42.040;21.322;2023-12-20T23:11:43;33.80;;;18.52;;
84687;SDS011;74908;42.040;21.322;2023-12-20T23:14:09;34.85;;;14.60;;
84687;SDS011;74908;42.040;21.322;2023-12-20T23:16:36;35.75;;;16.25;;
84687;SDS011;74908;42.040;21.322;2023-12-20T23:19:03;26.27;;;13.75;;
84687;SDS011;74908;42.040;21.322;2023-12-20T23:21:29;24.60;;;12.73;;